Time;durP1;ratioP1;P1;durP2;ratioP2;P2;SDS_P1;SDS_P2;PMS_P1;PMS_P2;Temp;Humidity;BMP_temperature;BMP_pressure;BME280_temperature;BME280_humidity;BME280_pressure;Samples;Min_cycle;Max_cycle;Signal;HPM_P1;HPM_P2
2023/05/29 00:01:12;;;;;;;;;3.00;1.50;;;;;13.93;58.15;100393.44;5114865;28;8867;-61
2023/05/29 00:03:40;;;;;;;;;3.33;3.00;;;;;13.89;58.38;100384.00;5114235;28;8843;-59
2023/05/29 00:06:08;;;;;;;;;1.00;1.00;;;;;13.85;57.97;100391.44;5115957;28;8866;-60
2023/05/29 00:08:36;;;;;;;;;3.00;3.00;;;;;13.80;58.16;100387.44;5119676;28;8917;-60
2023/05/29 00:11:04;;;;;;;;;4.00;3.50;;;;;13.76;58.13;100391.38;5119716;28;8853;-62
2023/05/29 00:13:31;;;;;;;;;1.00;1.00;;;;;13.71;58.36;100389.09;5119387;28;8843;-60
2023/05/29 00:16:00;;;;;;;;;4.00;3.00;;;;;13.68;58.40;100388.50;5118940;28;8824;-60
2023/05/29 00:18:28;;;;;;;;;2.50;2.00;;;;;13.65;58.66;100391.44;5119297;28;8811;-60
2023/05/29 00:20:56;;;;;;;;;6.00;4.00;;;;;13.63;58.28;100402.28;5119418;28;9515;-59
2023/05/29 00:23:24;;;;;;;;;4.00;4.00;;;;;13.61;58.58;100398.03;5119443;28;8836;-60
2023/05/29 00:25:51;;;;;;;;;3.00;3.00;;;;;13.57;58.61;100402.78;5119674;28;9680;-60
2023/05/29 00:28:20;;;;;;;;;3.50;3.50;;;;;13.56;58.53;100402.91;5118680;28;8811;-60
2023/05/29 00:30:48;;;;;;;;;2.00;2.00;;;;;13.54;58.73;100397.72;5118920;28;8808;-61
2023/05/29 00:33:16;;;;;;;;;2.50;2.50;;;;;13.53;58.57;100398.66;5119082;28;8979;-62
2023/05/29 00:35:43;;;;;;;;;3.25;3.25;;;;;13.52;58.95;100396.97;5118169;28;8852;-59
2023/05/29 00:38:11;;;;;;;;;4.00;3.25;;;;;13.50;58.73;100403.44;5118514;28;8956;-60
2023/05/29 00:40:38;;;;;;;;;2.00;1.00;;;;;13.47;58.75;100401.03;5117395;28;8946;-60
2023/05/29 00:43:06;;;;;;;;;4.00;4.00;;;;;13.42;59.00;100408.56;5117903;28;8954;-60
2023/05/29 00:45:36;;;;;;;;;1.00;1.00;;;;;13.34;58.88;100406.56;5118868;28;8846;-60
2023/05/29 00:48:04;;;;;;;;;4.00;3.00;;;;;13.29;59.41;100413.28;5118661;28;8832;-61
2023/05/29 00:50:32;;;;;;;;;3.75;3.50;;;;;13.23;59.24;100419.97;5117852;28;8862;-60
2023/05/29 00:53:00;;;;;;;;;3.00;3.00;;;;;13.18;59.49;100422.19;5118324;28;8942;-60
2023/05/29 00:55:27;;;;;;;;;3.50;3.00;;;;;13.16;58.85;100423.28;5118191;28;9506;-61
2023/05/29 00:57:55;;;;;;;;;3.00;3.00;;;;;13.11;59.28;100426.34;5118732;28;8855;-60
2023/05/29 01:00:24;;;;;;;;;3.00;1.50;;;;;13.10;59.09;100431.81;5118944;28;9525;-62
2023/05/29 01:02:52;;;;;;;;;3.00;3.00;;;;;13.06;59.72;100433.03;5118876;28;8965;-59
2023/05/29 01:05:21;;;;;;;;;3.50;3.50;;;;;13.03;59.62;100435.94;5118224;28;8864;-60
2023/05/29 01:07:48;;;;;;;;;1.00;1.00;;;;;12.98;59.96;100435.50;5118373;28;8831;-61
2023/05/29 01:10:17;;;;;;;;;3.00;3.00;;;;;12.95;59.99;100438.41;5117680;28;9611;-59
2023/05/29 01:12:45;;;;;;;;;3.50;3.25;;;;;12.93;59.62;100437.66;5117905;28;8816;-59
2023/05/29 01:15:13;;;;;;;;;3.50;3.00;;;;;12.92;59.59;100441.31;5118619;28;8859;-60
2023/05/29 01:17:41;;;;;;;;;2.00;1.50;;;;;12.92;59.78;100443.97;5118065;28;8835;-61
2023/05/29 01:20:09;;;;;;;;;1.50;1.50;;;;;12.90;59.76;100445.94;5118199;28;9528;-61
2023/05/29 01:22:37;;;;;;;;;3.00;3.00;;;;;12.86;59.94;100441.78;5117675;28;8832;-60
2023/05/29 01:25:05;;;;;;;;;3.00;3.00;;;;;12.82;59.80;100445.69;5117495;28;8831;-60
2023/05/29 01:27:33;;;;;;;;;3.50;3.00;;;;;12.77;60.06;100442.53;5118138;28;8828;-59
2023/05/29 01:30:01;;;;;;;;;4.00;3.00;;;;;12.76;60.44;100447.03;5118059;28;8823;-62
2023/05/29 01:32:28;;;;;;;;;1.00;1.00;;;;;12.72;60.07;100453.59;5118023;28;8837;-59
2023/05/29 01:34:56;;;;;;;;;3.75;3.00;;;;;12.70;60.09;100462.72;5118035;28;8849;-61
2023/05/29 01:37:23;;;;;;;;;2.50;1.00;;;;;12.72;60.24;100460.75;5117958;28;8938;-60
2023/05/29 01:39:51;;;;;;;;;3.75;3.50;;;;;12.70;60.40;100460.03;5117591;28;8898;-59
2023/05/29 01:42:19;;;;;;;;;3.00;3.00;;;;;12.70;60.35;100463.53;5117993;28;8979;-62
2023/05/29 01:44:48;;;;;;;;;3.00;3.00;;;;;12.67;60.26;100470.97;5118116;28;9000;-60
2023/05/29 01:47:16;;;;;;;;;2.50;1.00;;;;;12.63;60.25;100481.06;5117247;28;8842;-60
2023/05/29 01:49:44;;;;;;;;;2.00;2.00;;;;;12.58;60.54;100479.72;5117335;28;8836;-59
2023/05/29 01:52:11;;;;;;;;;1.00;1.00;;;;;12.56;61.10;100489.69;5116992;28;8842;-62
2023/05/29 01:54:39;;;;;;;;;3.00;2.50;;;;;12.53;60.48;100488.09;5117678;28;8855;-61
2023/05/29 01:57:07;;;;;;;;;0.75;0.75;;;;;12.49;60.89;100483.97;5117625;28;8815;-60
2023/05/29 01:59:35;;;;;;;;;1.00;1.00;;;;;12.45;60.51;100484.34;5117243;28;8812;-61
2023/05/29 02:02:03;;;;;;;;;0.75;0.75;;;;;12.46;61.10;100486.03;5116842;28;8977;-62
2023/05/29 02:04:31;;;;;;;;;3.00;2.50;;;;;12.44;60.90;100474.59;5117084;28;8848;-59
2023/05/29 02:06:58;;;;;;;;;1.00;1.00;;;;;12.43;61.02;100481.78;5117363;28;8811;-59
2023/05/29 02:09:26;;;;;;;;;3.00;3.00;;;;;12.42;60.94;100481.91;5117442;28;8834;-61
2023/05/29 02:11:54;;;;;;;;;1.50;1.50;;;;;12.43;61.30;100479.13;5117790;28;9921;-59
2023/05/29 02:14:24;;;;;;;;;1.00;0.50;;;;;12.42;60.69;100484.56;5117328;28;8824;-62
2023/05/29 02:16:52;;;;;;;;;2.50;2.50;;;;;12.42;60.97;100495.25;5117291;28;8824;-62
2023/05/29 02:19:20;;;;;;;;;1.50;1.50;;;;;12.41;61.18;100490.88;5117441;28;8960;-61
2023/05/29 02:21:48;;;;;;;;;1.00;1.00;;;;;12.40;60.82;100494.53;5116960;28;8820;-61
2023/05/29 02:24:16;;;;;;;;;3.75;3.75;;;;;12.44;61.07;100494.16;5116620;28;9509;-60
2023/05/29 02:26:43;;;;;;;;;3.00;2.00;;;;;12.48;60.57;100497.44;5116633;28;8856;-62
2023/05/29 02:29:11;;;;;;;;;3.50;3.50;;;;;12.50;60.53;100498.16;5115872;28;9101;-60
2023/05/29 02:31:39;;;;;;;;;3.00;2.00;;;;;12.48;61.22;100500.97;5115631;28;8962;-60
2023/05/29 02:34:07;;;;;;;;;4.00;3.00;;;;;12.47;60.66;100495.75;5116484;28;8855;-61
2023/05/29 02:36:37;;;;;;;;;1.00;1.00;;;;;12.44;60.77;100495.97;5116948;28;8966;-60
2023/05/29 02:39:05;;;;;;;;;1.00;1.00;;;;;12.46;60.97;100504.75;5116729;28;8856;-60
2023/05/29 02:41:32;;;;;;;;;1.00;1.00;;;;;12.48;60.56;100503.66;5117051;28;8828;-62
2023/05/29 02:44:00;;;;;;;;;4.00;4.00;;;;;12.52;60.83;100512.25;5115714;28;8820;-61
2023/05/29 02:46:28;;;;;;;;;2.50;2.50;;;;;12.53;61.09;100504.13;5116053;28;8974;-60
2023/05/29 02:48:55;;;;;;;;;5.00;4.00;;;;;12.57;60.50;100512.75;5116185;28;8838;-60
2023/05/29 02:51:23;;;;;;;;;3.25;3.25;;;;;12.58;60.96;100517.97;5116221;28;8844;-61
2023/05/29 02:53:51;;;;;;;;;1.50;1.50;;;;;12.58;60.81;100514.44;5116414;28;8954;-60
2023/05/29 02:56:23;;;;;;;;;2.00;2.00;;;;;12.59;60.83;100511.66;5116195;28;8812;-60
2023/05/29 02:58:51;;;;;;;;;1.50;1.50;;;;;12.61;60.83;100514.22;5115839;28;8827;-60
2023/05/29 03:01:19;;;;;;;;;1.00;1.00;;;;;12.63;61.12;100510.47;5116184;28;9493;-60
2023/05/29 03:03:46;;;;;;;;;3.25;3.00;;;;;12.64;60.79;100513.97;5115974;28;8855;-60
2023/05/29 03:06:16;;;;;;;;;3.00;2.00;;;;;12.65;61.06;100507.66;5115881;28;9757;-62
2023/05/29 03:08:44;;;;;;;;;1.00;1.00;;;;;12.62;60.64;100514.06;5116368;28;8838;-60
2023/05/29 03:11:13;;;;;;;;;2.50;2.50;;;;;12.55;61.35;100509.34;5116426;28;8909;-62
2023/05/29 03:13:41;;;;;;;;;0.25;0.00;;;;;12.47;61.26;100517.13;5116009;28;8815;-62
2023/05/29 03:16:10;;;;;;;;;2.00;1.50;;;;;12.39;61.92;100516.88;5115434;28;8962;-61
2023/05/29 03:18:37;;;;;;;;;1.00;1.00;;;;;12.34;61.64;100519.03;5115619;28;8828;-62
2023/05/29 03:21:06;;;;;;;;;2.00;1.00;;;;;12.28;62.39;100515.03;5115894;28;8824;-62
2023/05/29 03:23:34;;;;;;;;;0.50;0.50;;;;;12.20;62.33;100517.44;5115705;28;8848;-60
2023/05/29 03:26:02;;;;;;;;;3.00;3.00;;;;;12.15;62.44;100516.09;5114953;28;8824;-62
2023/05/29 03:28:30;;;;;;;;;1.50;1.50;;;;;12.09;62.24;100516.56;5114878;28;8969;-62
2023/05/29 03:30:57;;;;;;;;;0.75;0.75;;;;;12.00;62.68;100512.78;5114603;28;8959;-62
2023/05/29 03:33:25;;;;;;;;;3.50;3.00;;;;;11.93;62.55;100516.88;5115067;28;9560;-60
2023/05/29 03:35:53;;;;;;;;;1.75;1.50;;;;;11.91;62.76;100509.09;5114935;28;8842;-62
2023/05/29 03:38:21;;;;;;;;;1.50;1.50;;;;;11.85;62.78;100509.56;5115855;28;8859;-62
2023/05/29 03:40:48;;;;;;;;;2.00;2.00;;;;;11.78;62.71;100503.00;5116871;28;8992;-59
2023/05/29 03:43:16;;;;;;;;;1.00;1.00;;;;;11.74;62.55;100513.03;5120288;28;8840;-60
2023/05/29 03:45:44;;;;;;;;;3.50;2.50;;;;;11.71;63.15;100509.75;5120367;28;8978;-60
2023/05/29 03:48:11;;;;;;;;;1.00;0.75;;;;;11.65;63.11;100500.41;5119801;28;8812;-60
2023/05/29 03:50:39;;;;;;;;;1.00;1.00;;;;;11.60;63.06;100510.56;5120177;28;8954;-59
2023/05/29 03:53:07;;;;;;;;;3.00;3.00;;;;;11.56;63.19;100514.41;5120239;28;8839;-59
2023/05/29 03:55:34;;;;;;;;;2.00;2.00;;;;;11.55;63.06;100519.84;5120262;28;8816;-60
2023/05/29 03:58:02;;;;;;;;;3.00;1.00;;;;;11.55;63.13;100515.38;5120010;28;8834;-59
2023/05/29 04:00:30;;;;;;;;;0.75;0.75;;;;;11.57;62.82;100512.56;5120176;28;8850;-60
2023/05/29 04:02:58;;;;;;;;;1.00;1.00;;;;;11.58;62.81;100519.63;5119780;28;8962;-59
2023/05/29 04:05:26;;;;;;;;;1.00;1.00;;;;;11.59;62.94;100530.19;5119958;28;8861;-59
2023/05/29 04:07:54;;;;;;;;;1.00;1.00;;;;;11.61;63.12;100522.91;5119811;28;8860;-59
2023/05/29 04:10:40;;;;;;;;;1.00;1.00;;;;;11.62;63.10;100530.00;5119758;28;8819;-60
2023/05/29 04:13:09;;;;;;;;;3.00;2.50;;;;;11.67;63.02;100532.31;5119912;28;8917;-60
2023/05/29 04:15:37;;;;;;;;;0.25;0.25;;;;;11.72;62.83;100538.13;5119891;28;9545;-61
2023/05/29 04:18:05;;;;;;;;;1.00;0.00;;;;;11.77;62.46;100538.66;5119106;28;8818;-59
2023/05/29 04:20:33;;;;;;;;;0.75;0.75;;;;;11.79;62.14;100542.91;5119173;28;8956;-59
2023/05/29 04:23:00;;;;;;;;;2.00;2.00;;;;;11.83;62.47;100543.53;5119362;28;8819;-60
2023/05/29 04:25:28;;;;;;;;;1.00;1.00;;;;;11.90;61.88;100540.28;5119639;28;8827;-59
2023/05/29 04:27:56;;;;;;;;;3.00;2.00;;;;;11.96;62.17;100545.16;5119288;28;8820;-60
2023/05/29 04:30:24;;;;;;;;;2.00;1.00;;;;;12.01;61.77;100535.00;5119395;28;8910;-61
2023/05/29 04:32:51;;;;;;;;;0.00;0.00;;;;;12.06;61.91;100546.16;5119336;28;8827;-62
2023/05/29 04:35:19;;;;;;;;;1.00;1.00;;;;;12.11;61.61;100554.66;5119452;28;8832;-60
2023/05/29 04:37:47;;;;;;;;;2.00;1.00;;;;;12.16;61.33;100541.84;5119396;28;8918;-60
2023/05/29 04:40:17;;;;;;;;;1.00;1.00;;;;;12.23;61.88;100535.06;5119493;28;9512;-60
2023/05/29 04:42:46;;;;;;;;;1.00;1.00;;;;;12.30;61.76;100528.28;5119385;28;8834;-60
2023/05/29 04:45:13;;;;;;;;;2.50;2.50;;;;;12.37;61.05;100540.16;5119009;28;8828;-59
2023/05/29 04:47:44;;;;;;;;;1.50;1.50;;;;;12.43;61.23;100545.03;5118899;28;8828;-59
2023/05/29 04:50:12;;;;;;;;;1.50;1.50;;;;;12.50;60.94;100546.25;5118850;28;8816;-60
2023/05/29 04:52:40;;;;;;;;;1.75;1.75;;;;;12.55;61.08;100544.09;5117884;28;8820;-60
2023/05/29 04:55:08;;;;;;;;;1.50;1.50;;;;;12.61;61.24;100543.63;5118799;28;8962;-59
2023/05/29 04:57:35;;;;;;;;;3.00;3.00;;;;;12.66;60.60;100547.63;5119034;28;8862;-60
2023/05/29 05:00:05;;;;;;;;;1.00;1.00;;;;;12.74;60.66;100547.00;5119025;28;8932;-59
2023/05/29 05:02:33;;;;;;;;;1.00;1.00;;;;;12.80;61.35;100559.88;5119093;28;8942;-59
2023/05/29 05:05:01;;;;;;;;;3.00;3.00;;;;;12.85;60.49;100555.88;5119071;28;8848;-59
2023/05/29 05:07:29;;;;;;;;;1.00;1.00;;;;;12.89;60.52;100554.66;5118887;28;9509;-61
2023/05/29 05:09:57;;;;;;;;;2.00;2.00;;;;;12.94;60.62;100559.66;5118864;28;8842;-60
2023/05/29 05:12:25;;;;;;;;;2.00;2.00;;;;;13.00;60.24;100556.53;5118772;28;8950;-60
2023/05/29 05:14:53;;;;;;;;;3.00;1.00;;;;;13.04;60.56;100563.31;5118451;28;8811;-59
2023/05/29 05:17:21;;;;;;;;;3.50;2.00;;;;;13.10;60.24;100576.19;5117842;28;8835;-60
2023/05/29 05:19:49;;;;;;;;;0.50;0.50;;;;;13.16;59.89;100573.03;5118380;28;9473;-59
2023/05/29 05:22:17;;;;;;;;;2.00;1.00;;;;;13.23;59.82;100568.91;5117655;28;8826;-60
2023/05/29 05:24:46;;;;;;;;;4.00;3.00;;;;;13.30;60.10;100578.13;5118237;28;8878;-59
2023/05/29 05:27:14;;;;;;;;;1.00;1.00;;;;;13.34;60.10;100568.88;5118299;28;9981;-59
2023/05/29 05:29:42;;;;;;;;;3.00;2.00;;;;;13.40;59.84;100569.25;5118159;28;8824;-59
2023/05/29 05:32:10;;;;;;;;;1.75;1.75;;;;;13.44;59.75;100567.16;5118107;28;8841;-60
2023/05/29 05:34:37;;;;;;;;;2.25;2.25;;;;;13.52;60.11;100570.91;5118575;28;8847;-59
2023/05/29 05:37:05;;;;;;;;;2.75;1.00;;;;;13.54;59.57;100565.44;5118183;28;8835;-60
2023/05/29 05:39:33;;;;;;;;;1.50;1.00;;;;;13.57;59.96;100557.16;5118531;28;8844;-59
2023/05/29 05:42:01;;;;;;;;;2.50;1.00;;;;;13.62;59.71;100561.16;5118102;28;8948;-60
2023/05/29 05:44:28;;;;;;;;;1.00;1.00;;;;;13.67;59.80;100556.25;5118375;28;8831;-60
2023/05/29 05:46:56;;;;;;;;;3.00;1.00;;;;;13.76;59.61;100562.69;5118099;28;8967;-60
2023/05/29 05:49:24;;;;;;;;;3.00;1.50;;;;;13.79;59.68;100559.75;5117974;28;8977;-61
2023/05/29 05:51:52;;;;;;;;;1.00;1.00;;;;;13.85;59.36;100567.28;5117463;28;8958;-60
2023/05/29 05:54:20;;;;;;;;;3.75;3.75;;;;;13.90;59.98;100570.44;5117698;28;8828;-62
2023/05/29 05:56:48;;;;;;;;;1.50;1.50;;;;;13.94;59.44;100561.16;5117664;28;9596;-61
2023/05/29 05:59:15;;;;;;;;;2.00;1.00;;;;;14.01;58.89;100557.00;5117713;28;8958;-61
2023/05/29 06:01:43;;;;;;;;;3.00;3.00;;;;;14.06;59.25;100552.97;5117818;28;8820;-60
2023/05/29 06:04:11;;;;;;;;;1.50;1.50;;;;;14.13;59.36;100555.97;5117789;28;9013;-61
2023/05/29 06:06:39;;;;;;;;;4.00;4.00;;;;;14.20;58.73;100554.50;5117388;28;8946;-61
2023/05/29 06:09:07;;;;;;;;;2.00;2.00;;;;;14.25;59.07;100553.13;5117319;28;8820;-60
2023/05/29 06:11:35;;;;;;;;;2.50;2.50;;;;;14.34;58.80;100555.03;5117285;28;8870;-60
2023/05/29 06:14:03;;;;;;;;;1.50;1.50;;;;;14.42;58.64;100559.75;5117655;28;8908;-61
2023/05/29 06:16:31;;;;;;;;;1.00;1.00;;;;;14.46;58.43;100558.47;5117198;28;8851;-60
2023/05/29 06:18:58;;;;;;;;;4.50;4.00;;;;;14.52;57.99;100560.63;5117394;28;8901;-60
2023/05/29 06:21:26;;;;;;;;;6.00;3.75;;;;;14.63;58.32;100560.59;5117165;28;8982;-62
2023/05/29 06:23:54;;;;;;;;;1.00;0.50;;;;;14.70;58.44;100561.72;5117216;28;8816;-62
2023/05/29 06:26:22;;;;;;;;;3.00;3.00;;;;;14.75;58.12;100560.38;5116939;28;9488;-61
2023/05/29 06:28:50;;;;;;;;;0.00;0.00;;;;;14.80;58.43;100558.13;5117156;28;8828;-62
2023/05/29 06:31:18;;;;;;;;;1.00;1.00;;;;;14.86;58.36;100562.13;5117308;28;8836;-60
2023/05/29 06:33:45;;;;;;;;;1.00;1.00;;;;;14.93;58.11;100560.56;5116458;28;8908;-60
2023/05/29 06:36:13;;;;;;;;;1.50;1.00;;;;;15.02;57.71;100562.47;5117165;28;8954;-61
2023/05/29 06:38:41;;;;;;;;;1.25;1.25;;;;;15.14;57.82;100564.03;5117037;28;8824;-60
2023/05/29 06:41:09;;;;;;;;;2.25;0.75;;;;;15.19;57.76;100549.25;5117341;28;8844;-61
2023/05/29 06:43:37;;;;;;;;;2.50;2.50;;;;;15.25;57.73;100555.91;5117492;28;8843;-59
2023/05/29 06:46:04;;;;;;;;;3.00;2.50;;;;;15.31;57.68;100556.25;5116116;28;8832;-61
2023/05/29 06:48:32;;;;;;;;;3.00;3.00;;;;;15.34;57.79;100547.94;5116716;28;8838;-59
2023/05/29 06:50:59;;;;;;;;;1.50;1.50;;;;;15.36;57.30;100553.13;5116323;28;8815;-60
2023/05/29 06:53:28;;;;;;;;;4.00;3.50;;;;;15.43;57.42;100551.59;5116463;28;8804;-60
2023/05/29 06:55:56;;;;;;;;;2.50;2.50;;;;;15.49;57.42;100554.56;5116814;28;8897;-61
2023/05/29 06:58:23;;;;;;;;;3.00;3.00;;;;;15.55;56.54;100561.25;5116425;28;8839;-61
2023/05/29 07:00:51;;;;;;;;;3.50;3.00;;;;;15.62;56.62;100559.72;5116325;28;8895;-60
2023/05/29 07:03:19;;;;;;;;;3.00;3.00;;;;;15.67;56.86;100557.44;5116312;28;8843;-60
2023/05/29 07:05:47;;;;;;;;;3.00;3.00;;;;;15.74;56.36;100561.25;5116475;28;8874;-60
2023/05/29 07:08:15;;;;;;;;;4.00;3.00;;;;;15.78;56.82;100562.69;5116098;28;8835;-61
2023/05/29 07:10:43;;;;;;;;;3.25;3.00;;;;;15.86;56.46;100557.47;5115871;28;8819;-60
2023/05/29 07:13:11;;;;;;;;;3.00;1.50;;;;;15.89;56.43;100558.03;5116204;28;8823;-60
2023/05/29 07:15:39;;;;;;;;;4.00;3.00;;;;;15.93;56.85;100546.00;5115545;28;8824;-61
2023/05/29 07:18:07;;;;;;;;;3.00;2.00;;;;;16.03;56.11;100551.41;5116401;28;8946;-61
2023/05/29 07:20:35;;;;;;;;;3.00;3.00;;;;;16.08;56.57;100552.66;5116025;28;8816;-60
2023/05/29 07:23:05;;;;;;;;;3.25;2.00;;;;;16.16;56.81;100557.34;5115931;28;8839;-59
2023/05/29 07:25:33;;;;;;;;;3.50;3.00;;;;;16.29;55.75;100562.28;5116116;28;8970;-61
2023/05/29 07:28:00;;;;;;;;;3.50;2.50;;;;;16.42;55.49;100568.22;5115943;28;8909;-61
2023/05/29 07:30:47;;;;;;;;;2.00;2.00;;;;;16.48;55.29;100567.66;5115684;28;8852;-60
2023/05/29 07:33:15;;;;;;;;;2.00;2.00;;;;;16.53;55.88;100576.16;5114984;28;8828;-60
2023/05/29 07:35:43;;;;;;;;;3.00;3.00;;;;;16.57;55.78;100580.22;5114555;28;8978;-60
2023/05/29 07:38:11;;;;;;;;;3.80;3.40;;;;;16.67;55.18;100578.38;5113562;28;8823;-60
2023/05/29 07:40:39;;;;;;;;;3.00;3.00;;;;;16.68;55.26;100588.16;5113992;28;8909;-61
2023/05/29 07:43:09;;;;;;;;;4.00;3.00;;;;;16.66;55.47;100595.53;5114581;28;8970;-61
2023/05/29 07:45:36;;;;;;;;;2.00;1.50;;;;;16.71;55.49;100598.59;5114260;28;8859;-60
2023/05/29 07:48:04;;;;;;;;;4.00;3.25;;;;;16.74;55.35;100601.03;5114861;28;8885;-61
2023/05/29 07:50:32;;;;;;;;;3.00;3.00;;;;;16.75;55.22;100602.72;5115359;28;8835;-61
2023/05/29 07:53:00;;;;;;;;;3.00;2.00;;;;;16.82;55.71;100605.66;5115851;28;8858;-61
2023/05/29 07:55:28;;;;;;;;;4.25;3.25;;;;;16.88;55.71;100602.41;5115630;28;8820;-60
2023/05/29 07:57:56;;;;;;;;;4.50;3.50;;;;;16.86;55.25;100597.16;5115725;28;8820;-61
2023/05/29 08:00:24;;;;;;;;;4.50;4.00;;;;;16.87;55.29;100590.78;5115462;28;8854;-61
2023/05/29 08:02:52;;;;;;;;;3.00;3.00;;;;;16.92;55.58;100599.25;5115275;28;8835;-61
2023/05/29 08:05:20;;;;;;;;;4.00;3.00;;;;;16.98;55.13;100587.91;5115777;28;8848;-61
2023/05/29 08:07:48;;;;;;;;;3.00;3.00;;;;;17.08;55.51;100593.28;5115124;28;8824;-60
2023/05/29 08:10:16;;;;;;;;;3.20;3.00;;;;;17.17;54.99;100590.53;5115266;28;8858;-61
2023/05/29 08:12:44;;;;;;;;;3.00;3.00;;;;;17.26;55.09;100595.03;5115403;28;8835;-61
2023/05/29 08:15:12;;;;;;;;;0.60;0.00;;;;;17.33;55.22;100606.88;5114881;28;9526;-61
2023/05/29 08:17:40;;;;;;;;;2.20;2.00;;;;;17.37;54.54;100604.78;5115577;28;8824;-60
2023/05/29 08:20:10;;;;;;;;;5.60;4.00;;;;;17.41;54.85;100609.75;5115791;28;8870;-60
2023/05/29 08:22:37;;;;;;;;;4.60;3.80;;;;;17.46;54.67;100602.03;5114922;28;8915;-61
2023/05/29 08:25:05;;;;;;;;;1.40;1.40;;;;;17.55;54.61;100606.53;5114211;28;8928;-61
2023/05/29 08:27:33;;;;;;;;;3.00;3.00;;;;;17.67;54.53;100591.88;5115166;28;8823;-61
2023/05/29 08:30:01;;;;;;;;;3.00;1.80;;;;;17.75;54.51;100591.97;5117168;28;8832;-61
2023/05/29 08:32:29;;;;;;;;;4.80;4.80;;;;;17.91;53.69;100584.03;5118359;28;8905;-60
2023/05/29 08:34:57;;;;;;;;;5.20;4.00;;;;;18.06;53.68;100585.22;5118425;28;8844;-60
2023/05/29 08:37:25;;;;;;;;;3.00;3.00;;;;;18.20;53.89;100587.38;5118832;28;8913;-61
2023/05/29 08:39:54;;;;;;;;;0.00;0.00;;;;;18.31;53.45;100589.00;5118478;28;8812;-61
2023/05/29 08:42:23;;;;;;;;;5.40;4.00;;;;;18.43;52.92;100587.78;5118992;28;8851;-61
2023/05/29 08:44:54;;;;;;;;;6.20;3.00;;;;;18.47;52.91;100589.16;5118365;28;8968;-60
2023/05/29 08:47:21;;;;;;;;;3.20;3.00;;;;;18.53;53.26;100600.16;5118539;28;8832;-61
2023/05/29 08:49:49;;;;;;;;;0.20;0.20;;;;;18.65;53.12;100588.13;5118749;28;8921;-62
2023/05/29 08:52:17;;;;;;;;;3.00;3.00;;;;;18.77;52.57;100589.56;5118388;28;8828;-61
2023/05/29 08:54:46;;;;;;;;;3.40;3.40;;;;;18.87;53.00;100590.28;5117993;28;8832;-61
2023/05/29 08:57:13;;;;;;;;;6.00;4.00;;;;;18.98;52.21;100587.31;5117951;28;8820;-61
2023/05/29 08:59:41;;;;;;;;;4.80;3.60;;;;;19.08;52.27;100593.47;5117156;28;8897;-61
2023/05/29 09:02:09;;;;;;;;;3.40;3.40;;;;;19.20;52.58;100588.66;5117822;28;8835;-61
2023/05/29 09:04:37;;;;;;;;;3.20;3.00;;;;;19.30;51.87;100582.13;5118004;28;8866;-62
2023/05/29 09:07:08;;;;;;;;;3.00;3.00;;;;;19.35;51.79;100593.28;5117782;28;8852;-61
2023/05/29 09:09:36;;;;;;;;;4.40;3.00;;;;;19.39;52.02;100591.97;5116708;28;8836;-61
2023/05/29 09:12:04;;;;;;;;;2.20;2.00;;;;;19.44;52.06;100597.75;5116786;28;8836;-60
2023/05/29 09:14:33;;;;;;;;;3.20;2.20;;;;;19.50;51.58;100597.06;5116953;28;8843;-60
2023/05/29 09:17:01;;;;;;;;;4.40;4.40;;;;;19.62;51.51;100597.63;5116737;28;8851;-62
2023/05/29 09:19:30;;;;;;;;;6.20;4.00;;;;;19.72;51.69;100599.19;5117063;28;8831;-61
2023/05/29 09:21:57;;;;;;;;;2.00;2.00;;;;;19.79;51.19;100594.81;5116993;28;8824;-61
2023/05/29 09:24:27;;;;;;;;;2.80;1.80;;;;;19.76;51.01;100591.59;5117188;28;8827;-61
2023/05/29 09:26:55;;;;;;;;;3.20;3.20;;;;;19.82;51.18;100590.94;5117292;28;8866;-64
2023/05/29 09:29:24;;;;;;;;;4.20;4.00;;;;;19.88;51.25;100601.94;5117042;28;8820;-61
2023/05/29 09:31:52;;;;;;;;;5.00;2.80;;;;;19.89;51.13;100595.50;5116886;28;8823;-61
2023/05/29 09:34:20;;;;;;;;;1.00;0.80;;;;;19.97;50.65;100600.97;5116901;28;8856;-60
2023/05/29 09:36:48;;;;;;;;;2.00;2.00;;;;;20.02;50.94;100609.41;5117272;28;8835;-61
2023/05/29 09:39:16;;;;;;;;;2.00;2.00;;;;;20.13;51.17;100609.13;5116722;28;9611;-60
2023/05/29 09:41:44;;;;;;;;;3.80;3.20;;;;;20.27;50.45;100604.91;5117045;28;8834;-61
2023/05/29 09:44:13;;;;;;;;;4.60;4.60;;;;;20.37;50.78;100600.19;5116763;28;8827;-61
2023/05/29 09:46:42;;;;;;;;;4.60;4.00;;;;;20.50;50.09;100606.81;5116896;28;8941;-61
2023/05/29 09:49:10;;;;;;;;;4.00;4.00;;;;;20.64;49.83;100610.69;5116899;28;8839;-62
2023/05/29 09:51:39;;;;;;;;;4.20;2.40;;;;;20.79;49.67;100612.50;5117149;28;8850;-61
2023/05/29 09:54:07;;;;;;;;;1.40;1.00;;;;;20.96;49.18;100614.25;5116830;28;8856;-61
2023/05/29 09:56:35;;;;;;;;;2.00;2.00;;;;;21.16;49.00;100615.53;5116645;28;8855;-60
2023/05/29 09:59:03;;;;;;;;;4.20;4.00;;;;;21.38;48.99;100604.81;5115663;28;8917;-61
2023/05/29 10:01:32;;;;;;;;;4.00;4.00;;;;;21.69;48.12;100610.28;5115840;28;8839;-61
2023/05/29 10:04:00;;;;;;;;;1.00;1.00;;;;;21.99;47.75;100609.47;5116443;28;8848;-61
2023/05/29 10:06:29;;;;;;;;;4.00;4.00;;;;;22.31;47.26;100606.56;5115945;28;8866;-60
2023/05/29 10:08:58;;;;;;;;;4.20;4.00;;;;;22.55;46.82;100600.97;5116262;28;8824;-61
2023/05/29 10:11:27;;;;;;;;;2.00;2.00;;;;;22.70;46.41;100605.38;5116158;28;8850;-62
2023/05/29 10:13:55;;;;;;;;;3.20;3.20;;;;;22.91;46.52;100605.53;5116013;28;9497;-61
2023/05/29 10:16:23;;;;;;;;;1.80;1.00;;;;;23.16;46.43;100595.31;5116473;28;8828;-61
2023/05/29 10:18:51;;;;;;;;;2.40;2.00;;;;;23.42;45.89;100598.38;5116454;28;8942;-61
2023/05/29 10:21:19;;;;;;;;;2.00;2.00;;;;;23.70;45.27;100602.13;5117372;28;8866;-60
2023/05/29 10:23:47;;;;;;;;;4.00;2.00;;;;;23.95;45.16;100608.94;5117036;28;8840;-60
2023/05/29 10:26:15;;;;;;;;;2.00;2.00;;;;;24.16;44.78;100598.09;5115791;28;8862;-61
2023/05/29 10:28:43;;;;;;;;;3.00;2.20;;;;;24.28;44.33;100599.28;5115231;28;8921;-61
2023/05/29 10:31:12;;;;;;;;;1.40;1.40;;;;;24.50;44.13;100606.44;5114694;28;8820;-62
2023/05/29 10:33:40;;;;;;;;;2.80;2.00;;;;;24.81;43.61;100598.78;5114757;28;8839;-62
2023/05/29 10:36:08;;;;;;;;;2.20;2.00;;;;;25.00;43.18;100603.53;5115342;28;8843;-61
2023/05/29 10:38:36;;;;;;;;;2.20;2.20;;;;;25.27;43.13;100591.78;5114364;28;8832;-61
2023/05/29 10:41:04;;;;;;;;;6.20;5.00;;;;;25.41;42.67;100596.28;5114015;28;8862;-61
2023/05/29 10:43:33;;;;;;;;;1.80;1.80;;;;;25.30;43.15;100589.50;5119937;27;8826;-61
2023/05/29 10:46:02;;;;;;;;;1.00;1.00;;;;;25.24;43.51;100594.94;5120894;27;8820;-61
2023/05/29 10:48:30;;;;;;;;;2.00;2.00;;;;;25.19;43.17;100581.00;5115895;28;9550;-61
2023/05/29 10:50:58;;;;;;;;;2.00;2.00;;;;;25.30;42.95;100575.88;5115048;28;8837;-63
2023/05/29 10:53:27;;;;;;;;;2.60;2.00;;;;;25.56;42.91;100578.72;5116383;28;8825;-61
2023/05/29 10:55:55;;;;;;;;;1.40;1.20;;;;;25.79;42.40;100581.97;5116451;28;8818;-61
2023/05/29 10:58:24;;;;;;;;;3.00;2.60;;;;;26.03;41.77;100579.59;5115543;28;8833;-62
2023/05/29 11:00:53;;;;;;;;;5.00;3.00;;;;;26.31;41.53;100568.50;5114875;28;8820;-61
2023/05/29 11:03:20;;;;;;;;;2.00;1.40;;;;;26.47;41.58;100568.97;5113923;28;9521;-62
2023/05/29 11:05:48;;;;;;;;;2.00;2.00;;;;;26.65;41.39;100576.56;5115313;28;8839;-61
2023/05/29 11:08:17;;;;;;;;;3.00;2.20;;;;;26.73;41.00;100568.97;5114745;28;8832;-62
2023/05/29 11:10:45;;;;;;;;;2.80;2.80;;;;;26.77;41.04;100572.13;5114066;28;8836;-61
2023/05/29 11:13:12;;;;;;;;;2.00;2.00;;;;;26.81;40.80;100587.94;5113772;28;8959;-61
2023/05/29 11:15:41;;;;;;;;;3.20;2.80;;;;;26.85;41.18;100583.72;5114680;28;9001;-61
2023/05/29 11:18:08;;;;;;;;;3.00;2.00;;;;;26.86;40.50;100576.38;5114830;28;8847;-61
2023/05/29 11:20:36;;;;;;;;;5.20;2.00;;;;;26.91;40.18;100576.56;5115103;28;8824;-61
2023/05/29 11:23:07;;;;;;;;;2.40;2.20;;;;;26.98;39.97;100577.41;5115141;28;8850;-61
2023/05/29 11:25:35;;;;;;;;;3.00;3.00;;;;;27.03;40.15;100572.13;5115788;28;8851;-62
2023/05/29 11:28:07;;;;;;;;;2.20;2.00;;;;;27.10;39.98;100582.00;5115603;28;8840;-61
2023/05/29 11:30:35;;;;;;;;;2.40;2.00;;;;;27.17;39.60;100573.84;5114402;28;8945;-61
2023/05/29 11:33:05;;;;;;;;;2.60;2.60;;;;;27.34;39.37;100572.31;5115557;28;8851;-61
2023/05/29 11:35:33;;;;;;;;;2.00;2.00;;;;;27.45;39.65;100577.97;5114426;28;8993;-62
2023/05/29 11:38:01;;;;;;;;;2.20;1.80;;;;;27.58;39.43;100566.13;5113846;28;8824;-61